Data for 09/01/2006

Time Sea-Level Adjusted Pressure Absolute Pressure Temperature Relative Humidity Dew Point   
(mb) (inHg) (mb) (inHg) (C) (F) (%) (C) (F)
00:05 1026 30.3 856 25.28 8.7 47.6 56 0.4 32.8
00:10 1026 30.3 856 25.28 8.6 47.4 55 0.1 32.2
00:15 1026 30.3 856 25.28 8.7 47.7 56 0.4 32.7
00:20 1026 30.3 856 25.28 8.3 47 57 0.3 32.6
00:25 1026 30.3 856 25.28 8.2 46.8 57 0.2 32.3
00:30 1027 30.33 856 25.28 8.5 47.3 56 0.3 32.6
00:35 1027 30.33 856 25.28 8.6 47.4 56 0.3 32.6
00:40 1027 30.33 856 25.28 8.5 47.2 57 0.5 32.9
00:45 1027 30.33 856 25.28 8.4 47.1 57 0.4 32.8
00:50 1027 30.33 856 25.28 8.3 46.9 57 0.3 32.5
00:55 1027 30.33 856 25.28 8.3 47 57 0.3 32.5
01:00 1027 30.33 856 25.28 8.3 46.9 57 0.4 32.7
01:05 1027 30.33 856 25.28 8.3 46.9 57 0.4 32.7
01:10 1027 30.33 856 25.28 8.4 47 57 0.5 32.8
01:15 1027 30.33 856 25.28 8.3 46.9 58 0.5 32.9
01:20 1027 30.33 856 25.28 8.2 46.8 57 0.3 32.6
01:25 1027 30.33 856 25.28 8.3 47 57 0.2 32.4
01:30 1027 30.33 856 25.28 8.2 46.8 59 0.7 33.3
01:35 1027 30.33 856 25.28 7.7 45.9 60 0.5 32.9
01:40 1027 30.33 856 25.28 7.5 45.5 60 0.3 32.6
01:45 1027 30.33 856 25.28 7.4 45.3 62 0.6 33
01:50 1027 30.33 856 25.28 7.1 44.7 62 0.3 32.5
01:55 1027 30.33 856 25.28 7 44.6 62 0.3 32.5
02:00 1027 30.33 856 25.28 6.8 44.3 61 -0.1 31.8
02:05 1027 30.33 856 25.28 7 44.5 60 -0.3 31.5
02:10 1027 30.33 856 25.28 7 44.6 59 -0.5 31.1
02:15 1027 30.33 856 25.28 7.1 44.8 58 -0.6 31
02:20 1027 30.33 856 25.28 7.3 45.1 58 -0.5 31
02:25 1027 30.33 856 25.28 7.6 45.6 57 -0.4 31.3
02:30 1027 30.33 856 25.28 7.6 45.7 58 -0 32
02:35 1027 30.33 856 25.28 7.6 45.6 58 -0.1 31.9
02:40 1027 30.33 856 25.28 7.6 45.7 61 0.5 32.9
02:45 1027 30.33 856 25.28 7.7 45.9 60 0.4 32.8
02:50 1027 30.33 857 25.31 7.8 46 60 0.5 32.9
02:55 1027 30.33 857 25.31 7.8 46.1 60 0.5 33
03:00 1027 30.33 857 25.31 7.8 46 60 0.6 33.1
03:05 1027 30.33 857 25.31 7.6 45.8 61 0.7 33.2
03:10 1027 30.33 857 25.31 7.5 45.6 62 0.7 33.3
03:15 1027 30.33 857 25.31 7.4 45.2 63 0.8 33.4
03:20 1028 30.36 857 25.31 6.7 44.1 65 0.6 33.1
03:25 1028 30.36 857 25.31 6.2 43.1 66 0.3 32.5
03:30 1028 30.36 857 25.31 5.9 42.6 66 0 32.1
03:35 1028 30.36 857 25.31 5.5 41.9 65 -0.5 31.2
03:40 1028 30.36 857 25.31 5.1 41.2 67 -0.5 31.1
03:45 1028 30.36 857 25.31 5 41 66 -0.7 30.7
03:50 1028 30.36 857 25.31 4.9 40.9 66 -0.8 30.5
03:55 1028 30.36 857 25.31 5.2 41.3 65 -0.9 30.4
04:00 1028 30.36 857 25.31 5.3 41.5 65 -0.8 30.6
04:05 1028 30.36 857 25.31 5.2 41.4 66 -0.7 30.7
04:10 1028 30.36 857 25.31 5 41 67 -0.7 30.8
04:15 1028 30.36 857 25.31 4.9 40.8 66 -0.9 30.4
04:20 1028 30.36 857 25.31 4.8 40.6 67 -0.9 30.4
04:25 1028 30.36 857 25.31 4.6 40.3 67 -0.9 30.4
04:30 1028 30.36 857 25.31 4.7 40.4 67 -0.9 30.4
04:35 1028 30.36 857 25.31 4.5 40.1 69 -0.8 30.6
04:40 1028 30.36 857 25.31 4.5 40 68 -0.9 30.4
04:45 1028 30.36 857 25.31 4.6 40.3 67 -0.9 30.4
04:50 1028 30.36 857 25.31 4.6 40.3 68 -0.7 30.7
04:55 1028 30.36 857 25.31 4.6 40.3 68 -0.8 30.6
05:00 1028 30.36 857 25.31 4.6 40.3 68 -0.9 30.4
05:05 1028 30.36 857 25.31 4.4 39.8 69 -0.9 30.4
05:10 1028 30.36 857 25.31 4 39.3 70 -0.9 30.3
05:15 1028 30.36 857 25.31 3.9 39.1 71 -0.9 30.5
05:20 1028 30.36 857 25.31 3.7 38.7 72 -0.8 30.6
05:25 1028 30.36 857 25.31 3.3 38 74 -0.8 30.5
05:30 1028 30.36 857 25.31 3.2 37.7 75 -0.9 30.4
05:35 1028 30.36 857 25.31 3.4 38.1 71 -1.3 29.7
05:40 1028 30.36 857 25.31 3.8 38.9 71 -1 30.2
05:45 1028 30.36 857 25.31 3.8 38.9 71 -0.9 30.4
05:50 1028 30.36 857 25.31 3.8 38.9 73 -0.7 30.8
05:55 1028 30.36 857 25.31 4 39.3 71 -0.8 30.6
06:00 1028 30.36 857 25.31 4.3 39.7 68 -1 30.1
06:05 1028 30.36 857 25.31 4.3 39.7 70 -0.8 30.5
06:10 1028 30.36 857 25.31 4.1 39.4 70 -0.9 30.4
06:15 1028 30.36 857 25.31 4 39.2 71 -0.8 30.6
06:20 1028 30.36 857 25.31 3.9 39.1 73 -0.5 31.1
06:25 1028 30.36 857 25.31 3.6 38.5 74 -0.5 31.1
06:30 1028 30.36 857 25.31 3.6 38.5 75 -0.5 31.1
06:35 1028 30.36 857 25.31 3.5 38.3 74 -0.7 30.7
06:40 1028 30.36 857 25.31 3.3 38 75 -0.7 30.7
06:45 1028 30.36 857 25.31 3.1 37.5 76 -0.8 30.5
06:50 1028 30.36 858 25.34 2.9 37.3 76 -0.8 30.6
06:55 1028 30.36 858 25.34 2.8 37.1 77 -0.9 30.4
07:00 1028 30.36 858 25.34 2.9 37.3 78 -0.6 30.9
07:05 1028 30.36 858 25.34 3 37.4 78 -0.5 31.1
07:10 1028 30.36 858 25.34 3.2 37.8 76 -0.7 30.8
07:15 1029 30.39 858 25.34 3.2 37.8 74 -1 30.3
07:20 1029 30.39 858 25.34 3.4 38.2 73 -1 30.2
07:25 1029 30.39 858 25.34 3.6 38.4 73 -0.9 30.5
07:30 1029 30.39 858 25.34 3.7 38.6 72 -0.9 30.3
07:35 1029 30.39 858 25.34 3.8 38.8 72 -0.9 30.5
07:40 1029 30.39 858 25.34 3.8 38.9 72 -0.8 30.6
07:45 1029 30.39 858 25.34 3.8 38.8 72 -0.7 30.7
07:50 1029 30.39 858 25.34 3.9 39 72 -0.8 30.6
07:55 1029 30.39 858 25.34 4.1 39.4 71 -0.8 30.6
08:00 1029 30.39 858 25.34 4.5 40.1 69 -0.6 30.8
08:05 1029 30.39 858 25.34 4.7 40.5 69 -0.4 31.2
08:10 1029 30.39 858 25.34 4.9 40.7 70 -0.2 31.6
08:15 1029 30.39 858 25.34 5.2 41.4 68 -0.2 31.6
08:20 1029 30.39 858 25.34 5.7 42.3 68 0.2 32.4
08:25 1029 30.39 858 25.34 5.8 42.5 67 0.2 32.3
08:30 1029 30.39 858 25.34 6.1 42.9 67 0.3 32.6
08:35 1029 30.39 858 25.34 6.4 43.4 66 0.4 32.7
08:40 1029 30.39 858 25.34 6.6 43.9 65 0.6 33
08:45 1029 30.39 858 25.34 6.7 44.1 64 0.5 32.8
08:50 1029 30.39 858 25.34 7.2 44.9 63 0.6 33.1
08:55 1029 30.39 858 25.34 7.3 45.1 62 0.6 33.1
09:00 1029 30.39 858 25.34 7.6 45.6 60 0.4 32.8
09:05 1029 30.39 858 25.34 7.9 46.3 58 0.2 32.4
09:10 1029 30.39 858 25.34 8.4 47.1 57 0.4 32.8
09:15 1029 30.39 858 25.34 8.9 48 54 0.2 32.3
09:20 1029 30.39 858 25.34 9.8 49.6 51 0 32.1
09:25 1029 30.39 858 25.34 10.2 50.3 50 0.2 32.3
09:30 1029 30.39 858 25.34 10.5 50.9 49 0.4 32.7
09:35 1029 30.39 858 25.34 10.5 50.9 48 0.1 32.1
09:40 1029 30.39 858 25.34 10.8 51.4 48 0.1 32.2
09:45 1029 30.39 858 25.34 11 51.9 46 0 32
09:50 1029 30.39 858 25.34 11.8 53.2 45 0.2 32.4
09:55 1029 30.39 858 25.34 12 53.5 45 0.5 32.8
10:00 1029 30.39 858 25.34 11.7 53 46 0.6 33.1
10:05 1029 30.39 858 25.34 10.9 51.7 48 0.5 32.8
10:10 1029 30.39 858 25.34 10.5 51 47 -0.2 31.7
10:15 1029 30.39 858 25.34 11.4 52.6 45 0 32.1
10:20 1029 30.39 858 25.34 11.2 52.2 45 -0.3 31.5
10:25 1029 30.39 858 25.34 11.1 52.1 47 0.2 32.4
10:30 1029 30.39 858 25.34 11.4 52.6 45 -0.1 31.8
10:35 1029 30.39 858 25.34 12.4 54.4 42 0.1 32.1
10:40 1029 30.39 858 25.34 12.8 55 43 0.5 32.9
10:45 1029 30.39 858 25.34 12.4 54.4 43 0.2 32.4
10:50 1029 30.39 858 25.34 13.2 55.7 40 0 32.1
10:55 1029 30.39 858 25.34 13.5 56.4 40 0.2 32.4
11:00 1029 30.39 858 25.34 13.6 56.5 40 0.2 32.4
11:05 1029 30.39 858 25.34 13.6 56.5 39 -0.1 31.9
11:10 1029 30.39 858 25.34 14.1 57.4 39 0.3 32.5
11:15 1029 30.39 858 25.34 14 57.2 39 0.2 32.4
11:20 1029 30.39 858 25.34 14.5 58.1 39 0.6 33.1
11:25 1029 30.39 858 25.34 14.5 58.2 38 0.3 32.6
11:30 1029 30.39 858 25.34 14.2 57.6 37 0 32
11:35 1029 30.39 858 25.34 14.8 58.6 35 -0.5 31.1
11:40 1029 30.39 858 25.34 14.8 58.6 35 -0.3 31.4
11:45 1029 30.39 858 25.34 15.2 59.4 33 -0.9 30.3
11:50 1029 30.39 858 25.34 15.3 59.6 35 -0.1 31.8
11:55 1029 30.39 858 25.34 15.3 59.5 34 -0.3 31.5
12:00 1029 30.39 858 25.34 15.3 59.5 33 -1 30.3
12:05 1029 30.39 858 25.34 15 59 32 -1.4 29.5
12:10 1029 30.39 858 25.34 14.4 57.9 36 -0.5 31
12:15 1029 30.39 858 25.34 14.6 58.3 34 -1 30.2
12:20 1029 30.39 858 25.34 14.4 58 33 -1.7 29
12:25 1029 30.39 858 25.34 15.9 60.6 31 -1 30.2
12:30 1029 30.39 858 25.34 16.4 61.5 30 -1.1 30.1
12:35 1029 30.39 858 25.34 15.8 60.4 32 -0.9 30.5
12:40 1029 30.39 858 25.34 14.7 58.5 32 -1.6 29.2
12:45 1029 30.39 858 25.34 15.9 60.6 30 -1.6 29.1
12:50 1029 30.39 858 25.34 16.8 62.3 27 -2.3 27.9
12:55 1028 30.36 858 25.34 15.8 60.4 29 -1.9 28.5
13:00 1028 30.36 858 25.34 16 60.9 28 -2.3 27.9
13:05 1028 30.36 858 25.34 17 62.5 26 -2.8 26.9
13:10 1028 30.36 857 25.31 17.5 63.6 24 -3.2 26.2
13:15 1028 30.36 857 25.31 18.2 64.8 23 -2.9 26.8
13:20 1028 30.36 857 25.31 17.1 62.9 26 -2.3 27.9
13:25 1028 30.36 857 25.31 17 62.5 25 -3 26.6
13:30 1028 30.36 857 25.31 17.1 62.8 24 -3.4 25.9
13:35 1028 30.36 857 25.31 17.6 63.6 22 -4.1 24.7
13:40 1028 30.36 857 25.31 17.7 63.8 22 -4.5 24
13:45 1028 30.36 857 25.31 18.3 64.9 23 -3.3 26.1
13:50 1028 30.36 857 25.31 18.3 64.9 23 -2.9 26.8
13:55 1028 30.36 857 25.31 18.2 64.7 20 -5 23
14:00 1028 30.36 857 25.31 18.8 65.8 20 -4.4 24.2
14:05 1028 30.36 857 25.31 18.4 65.2 20 -5 23
14:10 1028 30.36 857 25.31 17.8 64 20 -5.3 22.4
14:15 1028 30.36 857 25.31 18.5 65.3 20 -4.7 23.5
14:20 1028 30.36 857 25.31 18.9 66.1 18 -5.9 21.5
14:25 1028 30.36 857 25.31 19.3 66.7 18 -5.4 22.3
14:30 1028 30.36 857 25.31 19.1 66.4 19 -5.1 22.7
14:35 1028 30.36 857 25.31 19.5 67.1 19 -4.8 23.4
14:40 1028 30.36 857 25.31 19 66.3 18 -6 21.2
14:45 1028 30.36 857 25.31 17.8 64.1 18 -6.5 20.4
14:50 1028 30.36 857 25.31 18.6 65.5 16 -7.7 18.2
14:55 1028 30.36 857 25.31 17.9 64.3 18 -6.5 20.3
15:00 1028 30.36 857 25.31 18.2 64.8 18 -6.4 20.5
15:05 1028 30.36 857 25.31 19.3 66.8 18 -5.4 22.3
15:10 1027 30.33 857 25.31 19.7 67.4 18 -5.4 22.3
15:15 1027 30.33 857 25.31 19.7 67.5 17 -6 21.2
15:20 1027 30.33 857 25.31 19.4 66.9 16 -6.8 19.7
15:25 1027 30.33 856 25.28 18.4 65.1 17 -6.7 20
15:30 1027 30.33 856 25.28 19 66.2 15 -8.2 17.2
15:35 1027 30.33 856 25.28 18.5 65.3 15 -8.9 15.9
15:40 1027 30.33 856 25.28 18 64.5 15 -9.1 15.6
15:45 1027 30.33 856 25.28 19.3 66.8 14 -9 15.8
15:50 1027 30.33 856 25.28 19.9 67.9 14 -8.4 17
15:55 1027 30.33 856 25.28 20.2 68.3 13 -8.6 16.4
16:00 1027 30.33 856 25.28 20.7 69.3 12 -9.2 15.4
16:05 1027 30.33 856 25.28 20.7 69.2 13 -8.5 16.7
16:10 1027 30.33 856 25.28 20.7 69.3 13 -8.7 16.3
16:15 1027 30.33 856 25.28 20.8 69.5 12 -9.4 15
16:20 1027 30.33 856 25.28 20.7 69.2 12 -9.4 15
16:25 1027 30.33 856 25.28 21.2 70.1 13 -8.6 16.5
16:30 1027 30.33 856 25.28 21.2 70.1 12 -9.7 14.5
16:35 1027 30.33 856 25.28 20.7 69.2 12 -9.2 15.4
16:40 1027 30.33 856 25.28 20.8 69.4 12 -9.7 14.5
16:45 1027 30.33 856 25.28 20.6 69.2 12 -10.1 13.9
16:50 1027 30.33 856 25.28 20.5 69 12 -9.7 14.5
16:55 1027 30.33 856 25.28 20.7 69.2 12 -10.1 13.8
17:00 1027 30.33 856 25.28 20.7 69.2 11 -10.5 13
17:05 1027 30.33 856 25.28 21 69.7 11 -10.4 13.2
17:10 1027 30.33 856 25.28 20.8 69.5 11 -10.3 13.5
17:15 1027 30.33 856 25.28 20.7 69.2 12 -10 14
17:20 1026 30.3 856 25.28 20.7 69.2 11 -10.3 13.4
17:25 1026 30.3 856 25.28 20.7 69.3 11 -10.3 13.4
17:30 1026 30.3 856 25.28 21.2 70.1 11 -10.6 12.9
17:35 1026 30.3 856 25.28 20.5 68.8 12 -9.6 14.6
17:40 1026 30.3 856 25.28 20.8 69.5 12 -10 14
17:45 1026 30.3 856 25.28 21.3 70.3 10 -10.9 12.4
17:50 1026 30.3 856 25.28 21 69.8 12 -9.9 14.2
17:55 1026 30.3 856 25.28 20.7 69.3 11 -10.3 13.5
18:00 1026 30.3 856 25.28 20.5 69 11 -10.8 12.5
18:05 1026 30.3 856 25.28 20.9 69.5 11 -10.2 13.6
18:10 1026 30.3 856 25.28 20.9 69.7 11 -11 12.3
18:15 1026 30.3 856 25.28 20.9 69.6 11 -11.1 12
18:20 1026 30.3 856 25.28 20.6 69 11 -11.1 12
18:25 1026 30.3 856 25.28 19.9 67.8 11 -11.5 11.2
18:30 1026 30.3 856 25.28 19.5 67 12 -10.8 12.6
18:35 1026 30.3 856 25.28 19.4 66.9 12 -11 12.2
18:40 1026 30.3 856 25.28 19.3 66.8 11 -11.3 11.6
18:45 1026 30.3 856 25.28 19.2 66.6 11 -11.4 11.4
18:50 1026 30.3 856 25.28 19.1 66.4 12 -11 12.2
18:55 1026 30.3 856 25.28 19.1 66.3 11 -11.5 11.2
19:00 1026 30.3 856 25.28 18.9 66.1 12 -11.4 11.4
19:05 1026 30.3 856 25.28 18.9 66 12 -11.2 11.8
19:10 1026 30.3 856 25.28 18.8 65.8 12 -10.8 12.6
19:15 1026 30.3 856 25.28 18.7 65.6 12 -11.4 11.5
19:20 1026 30.3 856 25.28 18.6 65.5 12 -11.1 12
19:25 1026 30.3 855 25.25 18.5 65.4 12 -11.3 11.7
19:30 1026 30.3 855 25.25 18.4 65.1 13 -10.8 12.6
19:35 1026 30.3 855 25.25 18.3 64.9 14 -9.4 15
19:40 1026 30.3 855 25.25 18.1 64.5 14 -9.5 15
19:45 1026 30.3 855 25.25 17.8 64 14 -10.2 13.6
19:50 1026 30.3 855 25.25 17.7 63.8 15 -9.2 15.4
19:55 1026 30.3 855 25.25 17.4 63.4 16 -8.6 16.5
20:00 1026 30.3 856 25.28 17.1 62.8 18 -7.4 18.7
20:05 1026 30.3 856 25.28 16.9 62.3 18 -7.9 17.9
20:10 1026 30.3 856 25.28 16.6 61.9 22 -5.3 22.5
20:15 1026 30.3 856 25.28 15.5 59.8 27 -3.2 26.2
20:20 1027 30.33 856 25.28 14.7 58.5 24 -5.8 21.5
20:25 1027 30.33 856 25.28 14.8 58.6 21 -7.2 19
20:30 1027 30.33 856 25.28 14.9 58.8 22 -6.5 20.3
20:35 1027 30.33 856 25.28 15 59 22 -6.4 20.5
20:40 1027 30.33 856 25.28 15 59 23 -6.1 20.9
20:45 1027 30.33 856 25.28 15 58.9 23 -6 21.3
20:50 1027 30.33 856 25.28 14.9 58.7 23 -5.9 21.4
20:55 1027 30.33 856 25.28 14.6 58.3 23 -6 21.2
21:00 1027 30.33 856 25.28 14.5 58.2 23 -6.2 20.8
21:05 1027 30.33 856 25.28 14.6 58.4 23 -6.1 21
21:10 1027 30.33 856 25.28 14.7 58.4 23 -6.1 20.9
21:15 1027 30.33 856 25.28 14.6 58.3 23 -6.1 21
21:20 1027 30.33 856 25.28 14.6 58.3 23 -6.5 20.3
21:25 1027 30.33 856 25.28 14.6 58.2 23 -6.2 20.8
21:30 1027 30.33 856 25.28 14.4 58 22 -6.8 19.7
21:35 1027 30.33 856 25.28 14.4 57.8 22 -7 19.4
21:40 1027 30.33 856 25.28 14.3 57.8 22 -7.1 19.2
21:45 1027 30.33 856 25.28 14.2 57.6 22 -7.2 19
21:50 1027 30.33 856 25.28 14.2 57.5 22 -7 19.3
21:55 1027 30.33 856 25.28 14.1 57.3 22 -7.2 19
22:00 1027 30.33 856 25.28 14 57.1 22 -7.3 18.8
22:05 1027 30.33 856 25.28 13.9 56.9 22 -7.4 18.7
22:10 1027 30.33 856 25.28 13.9 56.9 22 -7.3 18.8
22:15 1027 30.33 856 25.28 13.8 56.8 22 -7.3 18.8
22:20 1027 30.33 856 25.28 13.8 56.9 23 -6.9 19.6
22:25 1027 30.33 856 25.28 13.9 56.9 23 -6.6 20.1
22:30 1027 30.33 856 25.28 13.9 56.9 24 -6.4 20.5
22:35 1027 30.33 856 25.28 13.6 56.4 25 -6.1 21
22:40 1027 30.33 856 25.28 13.4 56.1 26 -5.7 21.7
22:45 1027 30.33 856 25.28 13.1 55.6 26 -5.8 21.6
22:50 1027 30.33 856 25.28 13.1 55.5 27 -5.5 22
22:55 1027 30.33 856 25.28 13 55.4 27 -5.4 22.3
23:00 1027 30.33 856 25.28 12.9 55.2 28 -5.3 22.4
23:05 1027 30.33 856 25.28 12.8 55.1 28 -5.1 22.9
23:10 1027 30.33 856 25.28 12.7 54.8 29 -4.9 23.3
23:15 1027 30.33 856 25.28 12.7 54.8 29 -4.6 23.6
23:20 1027 30.33 856 25.28 12.5 54.6 30 -4.4 24.1
23:25 1027 30.33 856 25.28 12.5 54.4 31 -4.1 24.7
23:30 1027 30.33 856 25.28 12.4 54.2 32 -3.8 25.1
23:35 1027 30.33 856 25.28 12.3 54.1 33 -3.7 25.4
23:40 1027 30.33 856 25.28 12.2 53.9 33 -3.6 25.6
23:45 1027 30.33 856 25.28 12.2 53.9 33 -3.4 25.9
23:50 1027 30.33 856 25.28 12.1 53.8 34 -3.3 26.1
23:55 1027 30.33 856 25.28 12 53.5 34 -3.2 26.3
24:00 1027 30.33 856 25.28 11.9 53.4 35 -3 26.5